Time;durP1;ratioP1;P1;durP2;ratioP2;P2;SDS_P1;SDS_P2;PMS_P1;PMS_P2;Temp;Humidity;BMP_temperature;BMP_pressure;BME280_temperature;BME280_humidity;BME280_pressure;Samples;Min_cycle;Max_cycle;Signal;HPM_P1;HPM_P2
2023/08/11 00:00:34;;;;;;;10.27;3.33;;;;;;;14.39;86.60;101190.09;4939159;28;20042;-78
2023/08/11 00:03:37;;;;;;;9.27;2.72;;;;;;;14.33;86.79;101187.81;4916356;29;20046;-78
2023/08/11 00:06:40;;;;;;;12.80;3.00;;;;;;;14.30;86.99;101185.34;4946734;28;20098;-78
2023/08/11 00:09:44;;;;;;;6.78;2.60;;;;;;;14.20;87.30;101187.66;4934902;29;20106;-79
2023/08/11 00:12:48;;;;;;;18.90;3.83;;;;;;;14.24;87.37;101185.72;4945303;28;20043;-78
2023/08/11 00:15:51;;;;;;;5.22;2.33;;;;;;;14.22;87.27;101198.09;4947271;28;20098;-79
2023/08/11 00:18:55;;;;;;;11.45;2.88;;;;;;;14.07;87.93;101192.78;4938550;28;20114;-80
2023/08/11 00:21:59;;;;;;;8.02;2.40;;;;;;;14.09;87.37;101193.50;4948588;28;20138;-80
2023/08/11 00:25:06;;;;;;;11.30;3.15;;;;;;;14.14;87.33;101194.13;4944511;28;20078;-80
2023/08/11 00:28:09;;;;;;;11.80;2.47;;;;;;;14.07;87.52;101192.78;4944408;28;20537;-80
2023/08/11 00:31:14;;;;;;;8.85;2.83;;;;;;;14.04;88.05;101190.31;4947311;28;20098;-80
2023/08/11 00:34:17;;;;;;;10.30;2.38;;;;;;;13.98;88.25;101193.28;4945403;29;20536;-79
2023/08/11 00:37:21;;;;;;;4.95;2.83;;;;;;;13.96;87.71;101188.09;4948603;29;20519;-77
2023/08/11 00:40:29;;;;;;;13.38;3.40;;;;;;;13.89;88.65;101188.53;4932785;28;20043;-79
2023/08/11 00:43:32;;;;;;;10.88;2.67;;;;;;;13.92;88.10;101198.88;4946322;28;20107;-78
2023/08/11 00:46:39;;;;;;;8.15;2.60;;;;;;;13.85;88.15;101201.00;4935317;29;20050;-79
2023/08/11 00:49:43;;;;;;;8.63;2.38;;;;;;;13.81;88.04;101195.97;4946561;28;20082;-79
2023/08/11 00:52:47;;;;;;;12.40;3.03;;;;;;;13.82;88.05;101195.06;4944861;28;20051;-79
2023/08/11 00:55:51;;;;;;;4.32;2.30;;;;;;;13.76;88.27;101200.66;4945793;29;20577;-79
2023/08/11 00:58:55;;;;;;;7.65;3.60;;;;;;;13.76;88.61;101195.41;4929946;29;20109;-79
2023/08/11 01:01:59;;;;;;;;;;;;;;;13.76;88.35;101184.88;4948153;28;20085;-79
2023/08/11 01:05:04;;;;;;;11.48;2.55;;;;;;;13.70;88.25;101184.28;4945824;29;20300;-79
2023/08/11 01:08:12;;;;;;;9.77;2.58;;;;;;;13.69;88.44;101179.97;4933498;29;20102;-80
2023/08/11 01:11:28;;;;;;;6.82;2.67;;;;;;;13.67;88.33;101178.34;4946354;29;20614;-80
2023/08/11 01:14:40;;;;;;;5.72;2.17;;;;;;;13.66;88.46;101168.78;4945788;28;20224;-79
2023/08/11 01:17:48;;;;;;;10.10;2.33;;;;;;;13.55;88.87;101164.09;4943387;28;20130;-80
2023/08/11 01:20:54;;;;;;;9.02;2.40;;;;;;;13.59;88.43;101168.28;4933547;28;20465;-79
2023/08/11 01:24:00;;;;;;;10.00;2.25;;;;;;;13.48;88.78;101160.09;4947288;28;20097;-79
2023/08/11 01:27:05;;;;;;;9.93;2.65;;;;;;;13.50;88.84;101163.50;4945603;28;20042;-79
2023/08/11 01:30:10;;;;;;;7.05;2.95;;;;;;;13.45;89.16;101165.53;4942897;28;20046;-79
2023/08/11 01:33:15;;;;;;;9.75;2.40;;;;;;;13.37;89.44;101168.59;4923119;29;20062;-79
2023/08/11 01:36:18;;;;;;;15.48;4.25;;;;;;;13.39;89.43;101161.44;4932040;29;20257;-78
2023/08/11 01:39:21;;;;;;;5.25;2.20;;;;;;;13.41;88.96;101164.84;4946974;29;20073;-78
2023/08/11 01:42:27;;;;;;;11.60;3.40;;;;;;;13.38;89.20;101158.91;4933674;28;20054;-78
2023/08/11 01:45:32;;;;;;;8.85;2.00;;;;;;;13.33;89.33;101168.81;4940208;29;20046;-78
2023/08/11 01:48:36;;;;;;;7.30;2.85;;;;;;;13.28;89.66;101162.97;4945683;28;20090;-78
2023/08/11 01:51:40;;;;;;;7.03;2.10;;;;;;;13.30;89.62;101163.72;4941436;29;20035;-78
2023/08/11 01:54:44;;;;;;;7.78;2.58;;;;;;;13.25;89.23;101170.06;4929985;28;20082;-78
2023/08/11 01:57:49;;;;;;;12.48;2.72;;;;;;;13.25;89.18;101175.31;4943678;29;20130;-77
2023/08/11 02:00:52;;;;;;;10.27;2.72;;;;;;;13.29;89.35;101173.38;4932869;29;20422;-79
2023/08/11 02:03:55;;;;;;;;;;;;;;;13.34;89.03;101168.75;4945726;28;20516;-77
2023/08/11 02:06:59;;;;;;;7.63;3.35;;;;;;;13.26;89.50;101163.88;4943987;29;19930;-79
2023/08/11 02:10:03;;;;;;;5.88;3.38;;;;;;;13.26;89.41;101161.25;4946862;28;20050;-78
2023/08/11 02:13:07;;;;;;;9.82;2.85;;;;;;;13.30;88.78;101167.19;4932397;29;20110;-78
2023/08/11 02:16:10;;;;;;;13.65;2.58;;;;;;;13.25;88.73;101170.06;4941459;29;20078;-78
2023/08/11 02:19:14;;;;;;;11.10;3.15;;;;;;;13.21;88.90;101157.16;4931052;29;20102;-78
2023/08/11 02:22:19;;;;;;;7.25;2.95;;;;;;;13.15;89.23;101162.75;4946213;28;20521;-78
2023/08/11 02:25:27;;;;;;;11.13;2.72;;;;;;;13.12;89.64;101161.13;4944205;28;20517;-79
2023/08/11 02:28:33;;;;;;;13.13;2.75;;;;;;;13.20;89.07;101158.91;4944772;28;20046;-79
2023/08/11 02:31:36;;;;;;;8.45;2.50;;;;;;;13.07;89.56;101160.50;4942856;28;20042;-79
2023/08/11 02:34:41;;;;;;;5.72;2.80;;;;;;;13.03;89.91;101164.22;4936886;29;20102;-79
2023/08/11 02:37:48;;;;;;;5.93;2.30;;;;;;;12.95;89.93;101163.75;4934375;28;20134;-80
2023/08/11 02:40:53;;;;;;;12.40;2.20;;;;;;;12.98;89.91;101161.81;4943865;29;20473;-79
2023/08/11 02:44:01;;;;;;;10.13;2.58;;;;;;;12.97;90.02;101165.38;4933651;29;20046;-79
2023/08/11 02:47:04;;;;;;;11.20;2.20;;;;;;;12.92;90.17;101156.03;4942080;28;20107;-79
2023/08/11 02:50:13;;;;;;;10.63;2.72;;;;;;;12.94;90.12;101154.19;4932125;29;20566;-79
2023/08/11 02:53:16;;;;;;;9.07;2.42;;;;;;;12.89;89.95;101158.84;4945031;28;20099;-80
2023/08/11 02:56:22;;;;;;;11.35;2.53;;;;;;;12.96;89.90;101163.69;4945746;28;20076;-78
2023/08/11 02:59:25;;;;;;;10.85;3.17;;;;;;;12.89;90.02;101158.84;4931958;29;20070;-78
2023/08/11 03:02:30;;;;;;;10.15;2.83;;;;;;;12.90;89.92;101160.56;4942912;28;20094;-78
2023/08/11 03:05:34;;;;;;;10.63;3.05;;;;;;;12.94;89.62;101164.69;4931028;29;20099;-78
2023/08/11 03:08:40;;;;;;;5.20;2.10;;;;;;;12.88;89.75;101160.59;4923291;29;20050;-78
2023/08/11 03:11:43;;;;;;;5.15;1.80;;;;;;;12.79;89.85;101156.72;4922937;29;20102;-78
2023/08/11 03:14:47;;;;;;;7.07;2.65;;;;;;;12.78;90.13;101164.66;4930008;28;20091;-78
2023/08/11 03:17:50;;;;;;;4.40;2.03;;;;;;;12.74;90.40;101173.59;4942589;28;20195;-77
2023/08/11 03:20:54;;;;;;;7.82;2.30;;;;;;;12.79;90.08;101158.47;4931376;29;20059;-77
2023/08/11 03:23:57;;;;;;;8.32;2.63;;;;;;;12.72;89.97;101159.72;4944692;28;20078;-78
2023/08/11 03:27:04;;;;;;;9.48;2.20;;;;;;;12.74;90.13;101158.72;4931828;29;20517;-78
2023/08/11 03:30:11;;;;;;;6.47;2.05;;;;;;;12.81;89.64;101159.25;4942325;28;20042;-78
2023/08/11 03:33:17;;;;;;;9.45;3.03;;;;;;;12.75;89.59;101163.03;4932813;29;20094;-78
2023/08/11 03:36:44;;;;;;;7.13;2.70;;;;;;;12.75;89.90;101164.78;4933604;29;20049;-79
2023/08/11 03:39:48;;;;;;;8.60;2.47;;;;;;;12.73;89.72;101171.88;4930720;29;20516;-79
2023/08/11 03:42:53;;;;;;;5.43;2.35;;;;;;;12.66;90.01;101168.72;4943439;28;20414;-78
2023/08/11 03:46:15;;;;;;;8.00;2.72;;;;;;;12.63;90.35;101168.88;4943729;28;20038;-79
2023/08/11 03:49:19;;;;;;;6.97;2.92;;;;;;;12.66;90.26;101168.72;4945228;28;20046;-79
2023/08/11 03:52:24;;;;;;;10.82;2.47;;;;;;;12.73;89.46;101162.28;4927845;28;20113;-79
2023/08/11 03:55:31;;;;;;;13.05;2.55;;;;;;;12.79;89.09;101159.34;4923387;28;20042;-79
2023/08/11 03:58:36;;;;;;;5.78;2.20;;;;;;;12.82;88.38;101157.47;4943720;28;20051;-79
2023/08/11 04:01:40;;;;;;;7.88;2.03;;;;;;;12.63;89.47;101171.50;4922366;28;20178;-79
2023/08/11 04:04:45;;;;;;;4.13;2.10;;;;;;;12.67;89.09;101166.97;4932404;29;20042;-79
2023/08/11 04:07:49;;;;;;;5.57;2.05;;;;;;;12.56;89.71;101170.97;4932294;29;20045;-79
2023/08/11 04:10:54;;;;;;;7.97;3.20;;;;;;;12.47;90.52;101162.72;4930245;29;20130;-79
2023/08/11 04:13:59;;;;;;;7.88;1.88;;;;;;;12.50;90.35;101171.28;4928422;29;20133;-79
2023/08/11 04:17:03;;;;;;;6.13;2.63;;;;;;;12.54;90.02;101164.97;4917352;29;20104;-79
2023/08/11 04:20:14;;;;;;;6.90;2.75;;;;;;;12.44;90.43;101165.50;4905945;29;20410;-79
2023/08/11 04:23:27;;;;;;;8.40;2.80;;;;;;;12.38;90.37;101165.78;4906100;29;20055;-79
2023/08/11 04:26:30;;;;;;;3.63;2.00;;;;;;;12.38;90.88;101171.03;4906216;29;20063;-80
2023/08/11 04:29:38;;;;;;;8.25;1.70;;;;;;;12.43;90.56;101169.03;4906016;29;20082;-80
2023/08/11 04:37:13;;;;;;;6.85;2.20;;;;;;;12.41;90.99;101176.13;4905143;29;20047;-79
2023/08/11 04:40:17;;;;;;;7.28;2.22;;;;;;;12.43;90.96;101180.38;4906118;29;20422;-79
2023/08/11 04:43:23;;;;;;;12.50;2.28;;;;;;;12.49;90.79;101184.47;4906444;29;20068;-80
2023/08/11 04:46:27;;;;;;;6.85;2.08;;;;;;;12.45;90.92;101177.69;4894840;29;20096;-79
2023/08/11 04:49:33;;;;;;;6.35;2.30;;;;;;;12.51;90.57;101182.66;4905954;29;20530;-80
2023/08/11 04:52:38;;;;;;;6.82;2.45;;;;;;;12.54;90.50;101177.25;4905040;29;20100;-79
2023/08/11 04:55:45;;;;;;;9.43;2.53;;;;;;;12.66;89.70;101176.59;4894532;29;20075;-79
2023/08/11 04:58:50;;;;;;;8.43;2.25;;;;;;;12.58;90.29;101184.03;4904547;29;20087;-80
2023/08/11 05:01:55;;;;;;;8.68;2.58;;;;;;;12.58;90.27;101194.53;4916540;29;20532;-79
2023/08/11 05:04:58;;;;;;;6.82;2.00;;;;;;;12.62;90.34;101185.56;4905718;29;20195;-79
2023/08/11 05:08:02;;;;;;;6.63;2.45;;;;;;;12.64;90.07;101188.97;4914592;29;20055;-79
2023/08/11 05:11:05;;;;;;;5.38;1.77;;;;;;;12.66;90.31;101189.72;4914529;29;20536;-79
2023/08/11 05:14:14;;;;;;;7.80;2.08;;;;;;;12.69;90.38;101186.94;4902886;29;20059;-79
2023/08/11 05:17:17;;;;;;;12.00;2.40;;;;;;;12.65;90.98;101195.91;4904266;29;20147;-78
2023/08/11 05:20:21;;;;;;;8.68;2.25;;;;;;;12.64;91.44;101196.00;4903689;29;20183;-78
2023/08/11 05:23:24;;;;;;;8.77;2.85;;;;;;;12.60;91.93;101203.13;4904662;29;20131;-77
2023/08/11 05:26:30;;;;;;;6.57;2.33;;;;;;;12.75;91.43;101196.28;4915816;29;20047;-76
2023/08/11 05:29:34;;;;;;;7.85;2.10;;;;;;;12.96;91.10;101199.59;4916517;29;20051;-69
2023/08/11 05:32:37;;;;;;;9.80;2.15;;;;;;;13.06;89.67;101198.19;4916703;29;20085;-70
2023/08/11 05:35:40;;;;;;;;;;;;;;;13.14;89.26;101196.00;4916286;29;20051;-70
2023/08/11 05:38:44;;;;;;;4.05;2.10;;;;;;;13.23;89.00;101187.66;4931830;29;19961;-68
2023/08/11 05:41:49;;;;;;;5.60;2.38;;;;;;;13.33;88.57;101197.69;4935058;29;20146;-83
2023/08/11 05:44:52;;;;;;;8.65;2.20;;;;;;;13.41;87.81;101195.53;4935504;29;20509;-78
2023/08/11 05:47:56;;;;;;;3.95;1.88;;;;;;;13.43;88.14;101191.91;4935682;29;20118;-78
2023/08/11 05:50:59;;;;;;;;;;;;;;;13.49;87.81;101193.31;4936299;29;20045;-78
2023/08/11 05:54:02;;;;;;;6.00;2.13;;;;;;;13.57;87.99;101187.66;4934608;29;19944;-79
2023/08/11 05:57:06;;;;;;;5.20;2.13;;;;;;;13.63;87.58;101192.59;4935336;29;20413;-79
2023/08/11 06:00:10;;;;;;;5.85;2.10;;;;;;;13.69;87.84;101192.28;4935094;29;20151;-78
2023/08/11 06:03:29;;;;;;;7.25;2.47;;;;;;;13.72;87.51;101200.81;4935067;29;20074;-79
2023/08/11 06:06:36;;;;;;;12.73;3.05;;;;;;;13.76;87.19;101192.78;4935268;29;20106;-79
2023/08/11 06:09:40;;;;;;;5.55;2.35;;;;;;;13.80;87.26;101194.28;4934855;29;20042;-78
2023/08/11 06:12:43;;;;;;;8.93;2.30;;;;;;;13.91;87.47;101191.91;4934431;29;20061;-76
2023/08/11 06:15:50;;;;;;;11.43;2.70;;;;;;;13.99;87.88;101192.34;4934465;29;20039;-80
2023/08/11 06:18:54;;;;;;;6.30;2.17;;;;;;;14.07;87.46;101195.41;4935036;29;20105;-73
2023/08/11 06:21:58;;;;;;;;;;;;;;;14.16;87.84;101189.59;4934382;29;20050;-73
2023/08/11 06:25:02;;;;;;;5.03;2.17;;;;;;;14.33;87.95;101200.97;4934494;29;19978;-73
2023/08/11 06:28:07;;;;;;;11.85;2.00;;;;;;;14.44;87.23;101201.19;4934164;29;20055;-79
2023/08/11 06:31:12;;;;;;;5.88;2.30;;;;;;;14.53;86.67;101194.56;4934354;29;20043;-81
2023/08/11 06:34:17;;;;;;;14.35;2.70;;;;;;;14.67;87.61;101196.41;4934391;29;20062;-84
2023/08/11 06:43:10;;;;;;;11.10;2.97;;;;;;;14.82;87.45;101192.88;4934027;29;20070;-86
2023/08/11 06:46:19;;;;;;;8.30;3.00;;;;;;;14.94;87.04;101192.13;4934270;29;20535;-85
2023/08/11 06:49:26;;;;;;;13.75;2.65;;;;;;;15.05;86.25;101192.31;4933969;29;20070;-83
2023/08/11 06:52:30;;;;;;;9.90;2.45;;;;;;;15.18;86.11;101194.22;4935237;29;20418;-84
2023/08/11 06:55:36;;;;;;;7.18;2.80;;;;;;;15.31;85.76;101189.88;4934373;29;20199;-83
2023/08/11 06:58:42;;;;;;;9.32;2.50;;;;;;;15.38;85.08;101190.34;4934486;29;20042;-80
2023/08/11 07:01:46;;;;;;;5.22;2.15;;;;;;;15.40;86.06;101194.59;4934193;29;20039;-78
2023/08/11 07:04:53;;;;;;;8.23;2.38;;;;;;;15.50;86.22;101197.50;4933780;29;20106;-83
2023/08/11 07:07:58;;;;;;;14.23;2.70;;;;;;;15.57;85.79;101191.78;4933562;29;20458;-82
2023/08/11 07:11:02;;;;;;;6.88;2.85;;;;;;;15.64;84.92;101186.97;4934534;29;20043;-83
2023/08/11 07:14:09;;;;;;;4.10;1.95;;;;;;;15.72;84.65;101189.13;4934142;29;20055;-78
2023/08/11 07:17:33;;;;;;;7.38;2.28;;;;;;;15.77;84.63;101189.72;4934543;29;20069;-83
2023/08/11 07:20:43;;;;;;;6.07;2.53;;;;;;;15.90;84.83;101181.84;4934168;29;20098;-82
2023/08/11 07:23:47;;;;;;;7.20;2.92;;;;;;;16.01;84.52;101182.84;4934208;29;20104;-83
2023/08/11 07:26:51;;;;;;;11.38;3.03;;;;;;;16.07;83.46;101178.97;4921894;29;20053;-81
2023/08/11 07:29:54;;;;;;;7.05;2.45;;;;;;;16.18;82.76;101183.56;4933927;29;20167;-82
2023/08/11 07:33:08;;;;;;;7.43;2.65;;;;;;;16.30;83.44;101189.81;4933817;29;20086;-81
2023/08/11 07:36:19;;;;;;;15.73;2.75;;;;;;;16.38;82.04;101177.81;4934047;29;20474;-77
2023/08/11 07:39:22;;;;;;;9.40;2.80;;;;;;;16.46;82.36;101183.44;4932765;29;20470;-71
2023/08/11 07:42:25;;;;;;;5.50;2.25;;;;;;;16.59;82.14;101179.94;4933160;29;20103;-72
2023/08/11 07:45:29;;;;;;;6.00;3.22;;;;;;;16.77;82.71;101183.19;4933087;29;20050;-73
2023/08/11 07:48:33;;;;;;;8.68;2.53;;;;;;;16.82;81.36;101181.94;4933021;29;20080;-74
2023/08/11 07:51:36;;;;;;;8.32;2.33;;;;;;;16.91;81.35;101183.97;4935577;29;20047;-75
2023/08/11 07:54:39;;;;;;;10.38;2.90;;;;;;;17.02;80.06;101171.81;4937035;29;20042;-74
2023/08/11 07:57:44;;;;;;;5.55;2.63;;;;;;;17.17;80.16;101178.66;4937059;29;20102;-74
2023/08/11 08:00:47;;;;;;;10.45;2.50;;;;;;;17.25;80.15;101172.84;4937626;29;20115;-84
2023/08/11 08:03:55;;;;;;;7.72;2.00;;;;;;;17.33;79.70;101171.34;4938019;29;20054;-84
2023/08/11 08:06:59;;;;;;;10.25;2.63;;;;;;;17.46;79.51;101162.56;4925605;29;20094;-81
2023/08/11 08:10:08;;;;;;;5.72;2.33;;;;;;;17.61;79.02;101164.97;4937376;29;20070;-82
2023/08/11 08:13:14;;;;;;;8.50;2.33;;;;;;;17.73;78.94;101157.91;4936373;29;20135;-81
2023/08/11 08:16:19;;;;;;;5.03;2.30;;;;;;;17.92;78.48;101157.47;4935714;29;20513;-74
2023/08/11 08:19:23;;;;;;;9.68;2.08;;;;;;;18.01;77.70;101150.66;4936400;29;20065;-73
2023/08/11 08:22:28;;;;;;;8.63;2.70;;;;;;;18.14;77.87;101154.09;4934950;29;20046;-74
2023/08/11 08:25:35;;;;;;;5.57;2.38;;;;;;;18.34;76.47;101150.78;4935569;29;20054;-74
2023/08/11 08:29:12;;;;;;;7.72;2.47;;;;;;;18.48;76.23;101146.28;4935575;29;20046;-71
2023/08/11 08:32:19;;;;;;;8.15;2.25;;;;;;;18.59;76.18;101146.28;4936205;29;20130;-73
2023/08/11 08:35:24;;;;;;;6.65;2.75;;;;;;;18.72;74.52;101141.78;4923641;29;20054;-73
2023/08/11 08:38:27;;;;;;;10.20;3.00;;;;;;;18.84;74.53;101139.16;4935877;29;20127;-72
2023/08/11 08:41:38;;;;;;;11.18;2.63;;;;;;;18.96;73.75;101132.91;4935367;29;20202;-73
2023/08/11 08:44:44;;;;;;;5.00;2.80;;;;;;;19.08;73.64;101137.25;4936292;29;20192;-73
2023/08/11 08:47:49;;;;;;;9.52;2.45;;;;;;;19.28;71.71;101125.91;4936492;29;20046;-77
2023/08/11 08:50:53;;;;;;;8.68;2.22;;;;;;;19.38;71.22;101135.78;4935618;29;20043;-74
2023/08/11 08:53:57;;;;;;;11.70;3.35;;;;;;;19.48;71.32;101131.44;4936227;29;20412;-73
2023/08/11 08:57:01;;;;;;;11.57;2.63;;;;;;;19.55;70.44;101129.13;4936750;29;20564;-77
2023/08/11 09:00:05;;;;;;;6.72;2.40;;;;;;;19.60;70.48;101127.78;4923612;29;20183;-72
2023/08/11 09:03:12;;;;;;;8.65;2.53;;;;;;;19.80;70.36;101130.66;4935067;29;20103;-72
2023/08/11 09:06:18;;;;;;;7.63;1.83;;;;;;;19.81;70.43;101124.38;4936062;29;20054;-72
2023/08/11 09:09:23;;;;;;;7.03;2.30;;;;;;;19.87;70.24;101114.09;4935356;29;20457;-73
2023/08/11 09:12:29;;;;;;;8.73;2.67;;;;;;;19.95;70.34;101111.69;4935536;29;20377;-73
2023/08/11 09:15:33;;;;;;;6.63;2.08;;;;;;;20.29;70.72;101108.84;4936027;29;20110;-73
2023/08/11 09:18:39;;;;;;;4.07;2.10;;;;;;;20.57;69.38;101101.25;4936140;29;20406;-73
2023/08/11 09:21:46;;;;;;;6.45;2.00;;;;;;;20.61;68.33;101100.00;4934370;29;20535;-75
2023/08/11 09:24:55;;;;;;;5.78;2.22;;;;;;;20.72;68.54;101104.41;4935913;29;20101;-73
2023/08/11 09:28:02;;;;;;;7.60;2.25;;;;;;;20.79;68.53;101094.94;4935886;29;20054;-74
2023/08/11 09:31:06;;;;;;;4.88;2.20;;;;;;;20.90;67.73;101087.72;4935614;29;20066;-72
2023/08/11 09:34:18;;;;;;;7.82;1.85;;;;;;;20.92;67.66;101084.09;4935278;29;20059;-75
2023/08/11 09:37:24;;;;;;;14.30;2.25;;;;;;;21.26;66.84;101081.97;4923677;29;20058;-74
2023/08/11 09:40:31;;;;;;;6.28;2.58;;;;;;;21.25;67.67;101081.13;4935527;29;20414;-76
2023/08/11 09:43:36;;;;;;;5.72;2.25;;;;;;;21.45;67.13;101078.56;4935849;29;20054;-76
2023/08/11 09:46:39;;;;;;;9.88;2.85;;;;;;;21.56;67.63;101081.06;4923496;29;20046;-75
2023/08/11 09:49:43;;;;;;;4.78;2.17;;;;;;;21.66;66.91;101078.41;4935717;29;20122;-77
2023/08/11 09:52:56;;;;;;;6.45;2.30;;;;;;;21.66;66.64;101076.59;4934912;29;20546;-72
2023/08/11 09:56:06;;;;;;;6.28;2.17;;;;;;;21.76;66.74;101079.25;4936111;29;20054;-79
2023/08/11 09:59:15;;;;;;;4.80;2.00;;;;;;;22.00;66.32;101079.69;4924228;29;20050;-77
2023/08/11 10:02:22;;;;;;;5.10;2.20;;;;;;;22.13;65.00;101073.25;4935917;29;20054;-75
2023/08/11 10:05:30;;;;;;;3.58;2.10;;;;;;;22.17;64.97;101074.66;4935048;29;20051;-77
2023/08/11 10:08:36;;;;;;;6.00;2.35;;;;;;;22.26;63.96;101071.16;4934414;29;20115;-73
2023/08/11 10:11:41;;;;;;;4.65;2.20;;;;;;;22.50;63.37;101065.38;4933062;29;20110;-73
2023/08/11 10:14:45;;;;;;;3.88;2.10;;;;;;;22.44;61.52;101066.78;4942810;28;20582;-69
2023/08/11 10:17:50;;;;;;;4.38;2.15;;;;;;;22.32;62.00;101059.94;4953753;28;20114;-75
2023/08/11 10:21:04;;;;;;;4.72;2.20;;;;;;;22.36;61.95;101061.31;4916290;29;20438;-77
2023/08/11 10:24:07;;;;;;;5.35;2.22;;;;;;;22.36;61.74;101053.31;4914823;29;20091;-78
2023/08/11 10:27:12;;;;;;;6.15;2.13;;;;;;;22.62;60.77;101060.69;4915822;29;20135;-78
2023/08/11 10:30:16;;;;;;;2.70;1.75;;;;;;;22.62;60.68;101052.69;4915949;29;20537;-77
2023/08/11 10:33:21;;;;;;;6.03;1.70;;;;;;;22.50;58.55;101047.56;4915669;29;20047;-76
2023/08/11 10:36:27;;;;;;;5.28;1.60;;;;;;;22.77;57.52;101047.72;4915617;29;20051;-74
2023/08/11 10:39:30;;;;;;;4.70;2.47;;;;;;;22.87;57.26;101038.69;4933804;28;20121;-80
2023/08/11 10:42:41;;;;;;;9.63;2.65;;;;;;;22.82;55.92;101035.66;4953717;28;20094;-77
2023/08/11 10:45:45;;;;;;;5.65;1.90;;;;;;;22.80;54.90;101037.63;4953405;28;20091;-79
2023/08/11 10:48:50;;;;;;;3.50;2.20;;;;;;;22.93;56.53;101038.13;4941918;28;20130;-77
2023/08/11 10:51:58;;;;;;;4.75;2.20;;;;;;;23.07;56.15;101025.28;4953402;28;20046;-77
2023/08/11 10:55:03;;;;;;;3.25;1.90;;;;;;;23.18;55.48;101030.44;4953162;28;20046;-77
2023/08/11 10:58:12;;;;;;;5.75;1.98;;;;;;;23.46;54.18;101017.88;4953321;28;20050;-77
2023/08/11 11:01:19;;;;;;;2.78;1.60;;;;;;;23.59;54.34;101017.50;4953493;28;20532;-77
2023/08/11 11:04:30;;;;;;;3.20;1.92;;;;;;;23.94;53.36;101015.84;4953265;28;20061;-78
2023/08/11 11:07:38;;;;;;;3.55;1.77;;;;;;;23.76;52.75;101005.16;4953319;28;20524;-76
2023/08/11 11:10:42;;;;;;;3.53;1.88;;;;;;;23.71;52.65;101002.09;4943373;28;20050;-76
2023/08/11 11:13:46;;;;;;;3.13;1.63;;;;;;;24.24;52.12;101001.16;4906889;29;20523;-76
2023/08/11 11:16:51;;;;;;;3.67;1.80;;;;;;;24.27;50.01;100995.50;4909236;29;20051;-76
2023/08/11 11:19:55;;;;;;;3.20;1.60;;;;;;;24.17;50.33;100992.94;4894192;29;20131;-77
2023/08/11 11:23:02;;;;;;;4.93;1.98;;;;;;;24.94;49.32;100987.66;4894196;29;20426;-77
2023/08/11 11:26:09;;;;;;;4.22;1.70;;;;;;;24.66;49.23;100985.22;4893770;29;20095;-79
2023/08/11 11:29:13;;;;;;;5.57;1.70;;;;;;;24.51;48.80;100989.50;4894788;29;20063;-78
2023/08/11 11:32:21;;;;;;;4.57;1.80;;;;;;;24.70;47.22;100986.59;4894669;29;20518;-73
2023/08/11 11:35:25;;;;;;;4.70;1.70;;;;;;;24.62;47.51;100986.53;4895902;29;20055;-77
2023/08/11 11:38:28;;;;;;;4.65;1.67;;;;;;;24.75;46.59;100986.09;4895925;29;20180;-77
2023/08/11 11:41:31;;;;;;;3.85;1.88;;;;;;;24.87;46.72;100983.97;4895530;29;20100;-79
2023/08/11 11:44:39;;;;;;;6.18;1.80;;;;;;;24.87;48.09;100982.13;4887187;29;20483;-78
2023/08/11 11:47:45;;;;;;;2.92;1.73;;;;;;;25.20;48.87;100983.06;4877281;29;20075;-80
2023/08/11 11:50:51;;;;;;;3.97;1.83;;;;;;;25.20;48.80;100988.41;4885914;29;20087;-78
2023/08/11 11:53:55;;;;;;;4.03;1.90;;;;;;;25.27;46.88;100993.94;4914600;29;20054;-77
2023/08/11 11:57:01;;;;;;;5.45;1.65;;;;;;;25.34;46.01;100989.63;4913327;29;20078;-74
2023/08/11 12:00:10;;;;;;;5.55;1.98;;;;;;;25.23;46.38;100977.38;4914502;29;20059;-73
2023/08/11 12:03:18;;;;;;;;;;;;;;;25.57;46.28;100987.13;4914955;29;20127;-79
2023/08/11 12:06:23;;;;;;;3.35;1.45;;;;;;;25.67;45.54;100984.28;4913469;29;19929;-76
2023/08/11 12:09:28;;;;;;;2.92;1.60;;;;;;;25.57;45.45;100979.09;4914542;29;20138;-76
2023/08/11 12:13:05;;;;;;;2.85;1.40;;;;;;;25.73;45.61;100972.91;4927267;28;20063;-76
2023/08/11 12:16:57;;;;;;;5.22;1.60;;;;;;;25.80;44.80;100973.06;4932380;29;20046;-77
2023/08/11 12:20:08;;;;;;;2.97;1.65;;;;;;;25.71;45.07;100970.38;4913311;29;20040;-74
2023/08/11 12:23:14;;;;;;;7.32;2.00;;;;;;;25.67;45.21;100965.53;4931559;29;20579;-73
2023/08/11 12:26:18;;;;;;;2.97;1.70;;;;;;;25.72;45.79;100971.25;4932064;29;20128;-73
2023/08/11 12:29:24;;;;;;;3.08;1.30;;;;;;;26.10;44.73;100969.72;4915639;29;20055;-74
2023/08/11 12:32:30;;;;;;;3.63;1.80;;;;;;;26.12;45.29;100964.19;4914390;29;20156;-74
2023/08/11 12:35:37;;;;;;;5.80;1.80;;;;;;;26.48;43.61;100961.91;4901922;29;20587;-84
2023/08/11 12:38:40;;;;;;;5.18;1.92;;;;;;;26.58;43.07;100961.69;4930003;29;20175;-72
2023/08/11 12:41:44;;;;;;;2.53;1.42;;;;;;;26.62;43.69;100952.31;4936682;29;20042;-74
2023/08/11 12:45:09;;;;;;;4.90;1.75;;;;;;;26.77;43.78;100949.72;4920928;29;20055;-74
2023/08/11 12:48:13;;;;;;;4.07;2.40;;;;;;;27.29;42.96;100957.16;4923654;29;20529;-72
2023/08/11 12:51:16;;;;;;;3.22;1.55;;;;;;;27.66;41.71;100953.66;4935094;29;20122;-75
2023/08/11 12:54:19;;;;;;;3.72;1.80;;;;;;;27.77;41.85;100950.56;4923042;29;20074;-74
2023/08/11 12:57:26;;;;;;;2.60;1.75;;;;;;;27.64;41.29;100953.00;4923036;29;20466;-74
2023/08/11 13:00:36;;;;;;;3.90;2.05;;;;;;;27.56;41.99;100948.53;4923587;29;20058;-86
2023/08/11 13:04:11;;;;;;;9.20;2.63;;;;;;;27.61;41.91;100944.47;4928123;29;20127;-76
2023/08/11 13:07:15;;;;;;;8.35;2.95;;;;;;;27.61;42.22;100947.16;4936454;29;20115;-75
2023/08/11 13:10:20;;;;;;;4.97;2.10;;;;;;;27.72;42.16;100946.72;4936111;29;20198;-76
2023/08/11 13:13:26;;;;;;;2.85;1.73;;;;;;;27.69;41.96;100944.38;4923922;29;20138;-75
2023/08/11 13:16:35;;;;;;;3.40;1.60;;;;;;;27.87;41.57;100942.25;4936266;29;20054;-81
2023/08/11 13:19:43;;;;;;;4.90;1.55;;;;;;;27.98;41.55;100939.13;4924414;29;20047;-78
2023/08/11 13:22:55;;;;;;;5.15;1.50;;;;;;;28.22;41.44;100939.84;4935773;29;20054;-74
2023/08/11 13:25:58;;;;;;;2.45;1.55;;;;;;;28.39;40.95;100932.41;4935724;29;20506;-76
2023/08/11 13:29:05;;;;;;;9.63;1.70;;;;;;;28.45;40.83;100935.22;4924293;29;20582;-73
2023/08/11 13:32:11;;;;;;;4.82;2.05;;;;;;;28.54;40.90;100938.66;4935719;29;20051;-76
2023/08/11 13:35:15;;;;;;;3.75;1.40;;;;;;;28.74;40.29;100933.50;4923908;29;20043;-77
2023/08/11 13:38:22;;;;;;;6.80;1.52;;;;;;;29.05;39.93;100932.44;4923881;29;20541;-75
2023/08/11 13:41:30;;;;;;;5.07;2.35;;;;;;;29.33;40.15;100938.72;4935750;29;20059;-75
2023/08/11 13:44:34;;;;;;;5.55;1.65;;;;;;;29.62;39.99;100921.59;4935135;29;20063;-74
2023/08/11 13:47:37;;;;;;;8.68;2.55;;;;;;;29.87;38.65;100913.88;4934981;29;20091;-70
2023/08/11 13:50:43;;;;;;;4.22;2.03;;;;;;;30.16;37.90;100898.50;4934426;29;20050;-71
2023/08/11 13:53:49;;;;;;;2.88;1.45;;;;;;;30.26;37.37;100887.38;4933495;29;20054;-75
2023/08/11 13:56:54;;;;;;;4.88;1.92;;;;;;;30.43;37.08;100898.63;4934014;29;20049;-74
2023/08/11 14:00:00;;;;;;;4.53;1.40;;;;;;;30.51;36.47;100903.88;4934586;29;20144;-73
2023/08/11 14:03:04;;;;;;;3.42;1.90;;;;;;;30.85;36.47;100910.22;4934669;29;20051;-71
2023/08/11 14:06:07;;;;;;;5.72;1.58;;;;;;;31.32;35.69;100903.00;4934897;29;20147;-69
2023/08/11 14:09:10;;;;;;;4.03;1.67;;;;;;;31.59;35.03;100902.00;4935243;29;20054;-67
2023/08/11 14:12:14;;;;;;;6.13;1.80;;;;;;;32.76;35.24;100896.66;4923108;29;20569;-73
2023/08/11 14:15:18;;;;;;;7.05;1.55;;;;;;;33.94;32.57;100887.78;4934920;29;20586;-77
2023/08/11 14:18:21;;;;;;;4.13;1.55;;;;;;;35.31;28.96;100887.22;4934926;29;20119;-76
2023/08/11 14:21:25;;;;;;;8.35;1.42;;;;;;;36.56;29.10;100880.44;4934867;29;20098;-76
2023/08/11 14:24:28;;;;;;;5.50;1.80;;;;;;;36.90;28.14;100877.78;4934645;29;20148;-76
2023/08/11 14:27:32;;;;;;;3.40;1.40;;;;;;;37.10;27.74;100872.69;4912113;29;20103;-75
2023/08/11 14:30:36;;;;;;;5.07;1.50;;;;;;;37.73;26.53;100876.13;4934503;29;20546;-75
2023/08/11 14:33:40;;;;;;;2.35;1.30;;;;;;;38.25;25.09;100874.88;4934621;29;20414;-76